createdAt,value
2019-04-25T00:00:56.822Z,0.00
2019-04-25T00:01:57.435Z,0.00
2019-04-25T00:02:56.832Z,0.00
2019-04-25T00:03:56.821Z,0.00
2019-04-25T00:04:56.853Z,0.00
2019-04-25T00:05:56.863Z,0.00
2019-04-25T00:06:56.824Z,0.00
2019-04-25T00:07:56.822Z,0.00
2019-04-25T00:08:56.821Z,0.00
2019-04-25T00:09:56.846Z,0.00
2019-04-25T00:10:56.830Z,0.00
2019-04-25T00:11:58.380Z,0.00
2019-04-25T00:12:56.915Z,0.00
2019-04-25T00:13:57.074Z,0.00
2019-04-25T00:14:56.844Z,0.00
2019-04-25T00:15:56.815Z,0.00
2019-04-25T00:16:56.820Z,0.00
2019-04-25T00:17:56.816Z,0.00
2019-04-25T00:18:56.817Z,0.00
2019-04-25T00:19:56.919Z,0.00
2019-04-25T00:20:56.815Z,0.00
2019-04-25T00:21:56.813Z,0.00
2019-04-25T00:22:56.810Z,0.00
2019-04-25T00:23:56.858Z,0.00
2019-04-25T00:24:56.813Z,0.00
2019-04-25T00:25:56.840Z,0.00
2019-04-25T00:26:56.811Z,0.00
2019-04-25T00:27:56.809Z,0.00
2019-04-25T00:28:56.809Z,0.00
2019-04-25T00:29:56.807Z,0.00
2019-04-25T00:30:56.835Z,0.00
2019-04-25T00:31:56.812Z,0.00
2019-04-25T00:32:56.912Z,0.00
2019-04-25T00:33:56.807Z,0.00
2019-04-25T00:34:56.806Z,0.00
2019-04-25T00:35:56.833Z,0.00
2019-04-25T00:36:56.808Z,0.00
2019-04-25T00:37:56.807Z,0.00
2019-04-25T00:38:56.803Z,0.00
2019-04-25T00:39:56.807Z,0.00
2019-04-25T00:40:56.830Z,0.00
2019-04-25T00:41:56.804Z,0.00
2019-04-25T00:42:56.802Z,0.00
2019-04-25T00:43:57.006Z,0.00
2019-04-25T00:44:56.802Z,0.00
2019-04-25T00:45:56.832Z,0.00
2019-04-25T00:46:56.883Z,0.00
2019-04-25T00:47:56.803Z,0.00
2019-04-25T00:48:56.799Z,0.00
2019-04-25T00:49:56.803Z,0.00
2019-04-25T00:50:56.822Z,0.00
2019-04-25T00:51:56.797Z,0.00
2019-04-25T00:52:56.801Z,0.00
2019-04-25T00:53:56.798Z,0.00
2019-04-25T00:54:56.796Z,0.00
2019-04-25T00:55:56.821Z,0.00
2019-04-25T00:56:56.794Z,0.00
2019-04-25T00:57:56.796Z,0.00
2019-04-25T00:58:56.793Z,0.00
2019-04-25T00:59:56.792Z,0.00
2019-04-25T01:00:56.987Z,0.00
2019-04-25T01:01:56.792Z,0.00
2019-04-25T01:02:56.790Z,0.00
2019-04-25T01:03:56.812Z,0.00
2019-04-25T01:04:56.789Z,0.00
2019-04-25T01:05:56.791Z,0.00
2019-04-25T01:06:56.819Z,0.00
2019-04-25T01:07:56.786Z,0.00
2019-04-25T01:08:56.786Z,0.00
2019-04-25T01:09:56.785Z,0.00
2019-04-25T01:10:56.784Z,0.00
2019-04-25T01:11:56.809Z,0.00
2019-04-25T01:12:56.783Z,0.00
2019-04-25T01:13:56.792Z,0.00
2019-04-25T01:14:56.780Z,0.00
2019-04-25T01:15:56.783Z,0.00
2019-04-25T01:16:56.805Z,0.00
2019-04-25T01:17:56.778Z,0.00
2019-04-25T01:18:56.776Z,0.00
2019-04-25T01:19:58.015Z,0.00
2019-04-25T01:20:56.776Z,0.00
2019-04-25T01:21:56.799Z,0.00
2019-04-25T01:22:57.759Z,0.00
2019-04-25T01:23:56.774Z,0.00
2019-04-25T01:24:56.775Z,0.00
2019-04-25T01:25:56.768Z,0.00
2019-04-25T01:26:56.792Z,0.00
2019-04-25T01:27:56.764Z,0.00
2019-04-25T01:28:56.762Z,0.00
2019-04-25T01:29:56.762Z,0.00
2019-04-25T01:30:56.764Z,0.00
2019-04-25T01:31:56.787Z,0.00
2019-04-25T01:32:56.773Z,0.00
2019-04-25T01:33:56.756Z,0.00
2019-04-25T01:34:58.947Z,0.00
2019-04-25T01:35:56.934Z,0.00
2019-04-25T01:36:56.994Z,0.00
2019-04-25T01:37:57.293Z,0.00
2019-04-25T01:38:58.797Z,0.00
2019-04-25T01:39:57.280Z,0.00
2019-04-25T01:40:57.363Z,0.00
2019-04-25T01:41:57.451Z,0.00
2019-04-25T01:42:56.741Z,0.00
2019-04-25T01:43:59.401Z,0.00
2019-04-25T01:44:58.107Z,0.00
2019-04-25T01:45:56.764Z,0.00
2019-04-25T01:46:56.739Z,0.00
2019-04-25T01:47:56.762Z,0.00
2019-04-25T01:48:56.733Z,0.00
2019-04-25T01:49:56.785Z,0.00
2019-04-25T01:50:56.739Z,0.00
2019-04-25T01:51:57.454Z,0.00
2019-04-25T01:52:56.790Z,0.00
2019-04-25T01:53:56.842Z,0.00
2019-04-25T01:54:57.147Z,0.00
2019-04-25T01:56:02.760Z,0.00
2019-04-25T01:56:57.369Z,0.00
2019-04-25T01:57:57.194Z,0.00
2019-04-25T01:58:57.356Z,0.00
2019-04-25T01:59:57.483Z,0.00
2019-04-25T02:00:57.334Z,0.00
2019-04-25T02:01:56.825Z,0.00
2019-04-25T02:02:56.788Z,0.00
2019-04-25T02:03:56.974Z,0.00
2019-04-25T02:04:58.784Z,0.00
2019-04-25T02:05:57.314Z,0.00
2019-04-25T02:06:57.050Z,0.00
2019-04-25T02:07:57.030Z,0.00
2019-04-25T02:08:57.225Z,0.00
2019-04-25T02:09:57.389Z,0.00
2019-04-25T02:10:57.058Z,0.00
2019-04-25T02:11:56.875Z,0.00
2019-04-25T02:12:57.636Z,0.00
2019-04-25T02:13:56.897Z,0.00
2019-04-25T02:14:56.917Z,0.00
2019-04-25T02:15:57.177Z,0.00
2019-04-25T02:16:57.191Z,0.00
2019-04-25T02:17:59.017Z,0.00
2019-04-25T02:18:57.733Z,0.00
2019-04-25T02:19:57.088Z,0.00
2019-04-25T02:20:59.977Z,0.00
2019-04-25T02:21:56.691Z,0.00
2019-04-25T02:22:56.717Z,0.00
2019-04-25T02:23:56.712Z,0.00
2019-04-25T02:24:57.102Z,0.00
2019-04-25T02:26:08.946Z,0.00
2019-04-25T02:26:57.275Z,0.00
2019-04-25T02:27:59.955Z,0.00
2019-04-25T02:28:57.306Z,0.00
2019-04-25T02:29:57.267Z,0.00
2019-04-25T02:30:59.792Z,0.00
2019-04-25T02:32:00.100Z,0.00
2019-04-25T02:33:00.904Z,0.00
2019-04-25T02:33:57.867Z,0.00
2019-04-25T02:34:59.689Z,0.00
2019-04-25T02:35:59.358Z,0.00
2019-04-25T02:37:00.631Z,0.00
2019-04-25T02:37:59.264Z,0.00
2019-04-25T02:38:59.540Z,0.00
2019-04-25T02:39:58.873Z,0.00
2019-04-25T02:40:59.502Z,0.00
2019-04-25T02:42:00.304Z,0.00
2019-04-25T02:42:58.517Z,0.00
2019-04-25T02:44:01.351Z,0.00
2019-04-25T02:45:00.159Z,0.00
2019-04-25T02:45:58.432Z,0.00
2019-04-25T02:46:59.108Z,0.00
2019-04-25T02:47:58.508Z,0.00
2019-04-25T02:48:59.592Z,0.00
2019-04-25T02:49:58.539Z,0.00
2019-04-25T02:50:58.080Z,0.00
2019-04-25T02:51:59.250Z,0.00
2019-04-25T02:52:57.440Z,0.00
2019-04-25T02:53:57.714Z,0.00
2019-04-25T02:54:58.426Z,0.00
2019-04-25T02:55:57.747Z,0.00
2019-04-25T02:56:57.484Z,0.00
2019-04-25T02:57:58.170Z,0.00
2019-04-25T02:58:56.670Z,0.00
2019-04-25T02:59:57.518Z,0.00
2019-04-25T03:01:03.450Z,0.00
2019-04-25T03:01:57.618Z,0.00
2019-04-25T03:02:57.928Z,0.00
2019-04-25T03:03:57.948Z,0.00
2019-04-25T03:04:58.373Z,0.00
2019-04-25T03:05:57.490Z,0.00
2019-04-25T03:06:58.414Z,0.00
2019-04-25T03:07:57.770Z,0.00
2019-04-25T03:08:57.841Z,0.00
2019-04-25T03:09:58.078Z,0.00
2019-04-25T03:10:58.199Z,0.00
2019-04-25T03:11:58.217Z,0.00
2019-04-25T03:12:58.399Z,0.00
2019-04-25T03:13:57.725Z,0.00
2019-04-25T03:14:58.279Z,0.00
2019-04-25T03:15:58.474Z,0.00
2019-04-25T03:16:58.543Z,0.00
2019-04-25T03:17:57.865Z,0.00
2019-04-25T03:18:58.850Z,0.00
2019-04-25T03:19:56.612Z,0.00
2019-04-25T03:20:56.774Z,0.00
2019-04-25T03:21:56.618Z,0.00
2019-04-25T03:22:56.606Z,0.00
2019-04-25T03:23:56.644Z,0.00
2019-04-25T03:24:56.608Z,0.00
2019-04-25T03:25:56.608Z,0.00
2019-04-25T03:26:56.605Z,0.00
2019-04-25T03:27:56.602Z,0.00
2019-04-25T03:28:56.632Z,0.00
2019-04-25T03:29:56.599Z,0.00
2019-04-25T03:30:57.215Z,0.00
2019-04-25T03:31:56.592Z,0.00
2019-04-25T03:32:56.605Z,0.00
2019-04-25T03:33:56.598Z,0.00
2019-04-25T03:34:56.612Z,0.00
2019-04-25T03:35:56.597Z,0.00
2019-04-25T03:36:56.585Z,0.00
2019-04-25T03:37:56.582Z,0.00
2019-04-25T03:38:56.579Z,0.00
2019-04-25T03:39:56.605Z,0.00
2019-04-25T03:40:56.577Z,0.00
2019-04-25T03:41:56.588Z,0.00
2019-04-25T03:42:56.578Z,0.00
2019-04-25T03:43:56.570Z,0.00
2019-04-25T03:44:56.596Z,0.00
2019-04-25T03:45:56.576Z,0.00
2019-04-25T03:46:56.565Z,5.63
2019-04-25T03:47:56.565Z,5.63
2019-04-25T03:48:56.563Z,5.63
2019-04-25T03:49:56.588Z,5.63
2019-04-25T03:50:56.561Z,5.63
2019-04-25T03:51:56.559Z,11.25
2019-04-25T03:52:56.556Z,11.25
2019-04-25T03:53:56.554Z,11.25
2019-04-25T03:54:56.842Z,11.25
2019-04-25T03:55:56.556Z,16.88
2019-04-25T03:56:56.549Z,16.88
2019-04-25T03:57:56.549Z,16.88
2019-04-25T03:58:56.548Z,16.88
2019-04-25T03:59:56.571Z,22.50
2019-04-25T04:00:56.547Z,22.50
2019-04-25T04:01:56.567Z,28.13
2019-04-25T04:02:56.541Z,28.13
2019-04-25T04:03:56.538Z,28.13
2019-04-25T04:04:56.562Z,33.75
2019-04-25T04:05:56.539Z,33.75
2019-04-25T04:06:56.537Z,39.38
2019-04-25T04:07:56.532Z,39.38
2019-04-25T04:08:56.530Z,45.00
2019-04-25T04:09:56.555Z,45.00
2019-04-25T04:10:56.525Z,50.63
2019-04-25T04:11:56.743Z,50.63
2019-04-25T04:12:56.522Z,56.25
2019-04-25T04:13:56.522Z,61.88
2019-04-25T04:14:56.547Z,61.88
2019-04-25T04:15:56.524Z,67.50
2019-04-25T04:16:56.514Z,67.50
2019-04-25T04:17:56.519Z,73.13
2019-04-25T04:18:56.525Z,78.75
2019-04-25T04:19:56.540Z,78.75
2019-04-25T04:20:56.513Z,84.38
2019-04-25T04:21:56.506Z,84.38
2019-04-25T04:22:56.505Z,90.00
2019-04-25T04:23:57.251Z,95.63
2019-04-25T04:24:56.525Z,101.25
2019-04-25T04:25:56.511Z,101.25
2019-04-25T04:27:03.463Z,106.88
2019-04-25T04:27:56.496Z,112.50
2019-04-25T04:28:56.498Z,118.13
2019-04-25T04:29:56.523Z,123.75
2019-04-25T04:30:56.488Z,129.38
2019-04-25T04:31:56.486Z,135.00
2019-04-25T04:32:56.489Z,140.63
2019-04-25T04:33:56.482Z,146.25
2019-04-25T04:34:56.480Z,151.88
2019-04-25T04:35:56.504Z,157.50
2019-04-25T04:36:56.476Z,163.13
2019-04-25T04:37:56.475Z,168.75
2019-04-25T04:38:56.493Z,185.63
2019-04-25T04:39:56.472Z,196.88
2019-04-25T04:40:56.499Z,202.50
2019-04-25T04:41:56.473Z,208.13
2019-04-25T04:42:56.466Z,208.13
2019-04-25T04:43:56.470Z,213.75
2019-04-25T04:44:56.461Z,208.13
2019-04-25T04:45:56.489Z,208.13
2019-04-25T04:46:56.470Z,208.13
2019-04-25T04:47:56.461Z,213.75
2019-04-25T04:48:56.458Z,219.38
2019-04-25T04:49:56.455Z,225.00
2019-04-25T04:50:56.908Z,230.63
2019-04-25T04:51:57.173Z,230.63
2019-04-25T04:52:56.451Z,236.25
2019-04-25T04:53:56.454Z,230.63
2019-04-25T04:55:05.366Z,230.63
2019-04-25T04:55:56.480Z,230.63
2019-04-25T04:56:56.450Z,236.25
2019-04-25T04:57:56.447Z,241.88
2019-04-25T04:58:56.446Z,241.88
2019-04-25T04:59:56.444Z,247.50
2019-04-25T05:00:56.468Z,281.25
2019-04-25T05:01:56.444Z,258.75
2019-04-25T05:02:56.458Z,309.38
2019-04-25T05:03:56.445Z,337.50
2019-04-25T05:04:56.443Z,348.75
2019-04-25T05:05:56.466Z,315.00
2019-04-25T05:06:56.437Z,326.25
2019-04-25T05:07:56.440Z,354.38
2019-04-25T05:08:56.437Z,376.88
2019-04-25T05:09:56.437Z,382.50
2019-04-25T05:10:57.435Z,399.38
2019-04-25T05:11:56.436Z,416.25
2019-04-25T05:12:56.428Z,433.13
2019-04-25T05:13:56.476Z,438.75
2019-04-25T05:14:56.431Z,438.75
2019-04-25T05:15:56.459Z,438.75
2019-04-25T05:16:56.429Z,410.63
2019-04-25T05:17:56.430Z,427.50
2019-04-25T05:18:56.429Z,433.13
2019-04-25T05:19:56.426Z,466.88
2019-04-25T05:20:56.453Z,517.50
2019-04-25T05:21:56.428Z,534.38
2019-04-25T05:22:56.429Z,540.00
2019-04-25T05:23:56.543Z,568.13
2019-04-25T05:24:56.550Z,585.00
2019-04-25T05:25:56.458Z,523.13
2019-04-25T05:26:56.426Z,528.75
2019-04-25T05:28:02.536Z,528.75
2019-04-25T05:28:57.057Z,534.38
2019-04-25T05:29:56.476Z,562.50
2019-04-25T05:30:56.477Z,573.75
2019-04-25T05:31:56.429Z,596.25
2019-04-25T05:32:56.430Z,573.75
2019-04-25T05:33:56.443Z,579.38
2019-04-25T05:34:56.438Z,579.38
2019-04-25T05:35:56.455Z,568.13
2019-04-25T05:36:56.427Z,573.75
2019-04-25T05:37:56.433Z,551.25
2019-04-25T05:38:56.436Z,556.88
2019-04-25T05:39:56.431Z,551.25
2019-04-25T05:40:56.468Z,540.00
2019-04-25T05:41:56.462Z,528.75
2019-04-25T05:42:56.430Z,511.88
2019-04-25T05:43:56.430Z,528.75
2019-04-25T05:44:56.557Z,551.25
2019-04-25T05:45:56.541Z,551.25
2019-04-25T05:46:56.534Z,579.38
2019-04-25T05:47:56.520Z,585.00
2019-04-25T05:48:56.433Z,579.38
2019-04-25T05:49:56.472Z,630.00
2019-04-25T05:50:56.433Z,691.88
2019-04-25T05:51:56.472Z,680.63
2019-04-25T05:52:56.450Z,697.50
2019-04-25T05:53:56.439Z,703.13
2019-04-25T05:54:56.441Z,731.25
2019-04-25T05:55:56.505Z,736.88
2019-04-25T05:56:59.464Z,736.88
2019-04-25T05:57:56.663Z,770.63
2019-04-25T05:58:56.578Z,759.38
2019-04-25T05:59:56.436Z,810.00
2019-04-25T06:00:57.067Z,753.75
2019-04-25T06:01:56.467Z,815.63
2019-04-25T06:02:56.438Z,838.13
2019-04-25T06:03:56.437Z,793.13
2019-04-25T06:04:56.442Z,804.38
2019-04-25T06:05:56.443Z,798.75
2019-04-25T06:06:56.467Z,765.00
2019-04-25T06:07:56.440Z,815.63
2019-04-25T06:08:56.445Z,675.00
2019-04-25T06:09:56.442Z,748.13
2019-04-25T06:10:56.445Z,787.50
2019-04-25T06:11:56.472Z,781.88
2019-04-25T06:12:56.446Z,838.13
2019-04-25T06:13:56.451Z,883.13
2019-04-25T06:14:57.067Z,900.00
2019-04-25T06:15:56.448Z,928.13
2019-04-25T06:16:56.474Z,916.88
2019-04-25T06:17:56.456Z,945.00
2019-04-25T06:18:56.474Z,978.75
2019-04-25T06:19:56.452Z,1035.00
2019-04-25T06:20:56.459Z,1057.50
2019-04-25T06:21:56.484Z,1063.13
2019-04-25T06:22:56.456Z,1141.88
2019-04-25T06:23:56.459Z,1186.88
2019-04-25T06:24:56.471Z,1186.88
2019-04-25T06:25:56.477Z,1113.75
2019-04-25T06:26:56.488Z,1170.00
2019-04-25T06:27:59.089Z,1181.25
2019-04-25T06:28:59.546Z,1203.75
2019-04-25T06:29:58.979Z,1271.25
2019-04-25T06:30:56.471Z,1282.50
2019-04-25T06:32:06.036Z,1338.75
2019-04-25T06:32:56.475Z,1203.75
2019-04-25T06:33:56.480Z,1175.63
2019-04-25T06:34:56.561Z,1338.75
2019-04-25T06:35:56.966Z,1445.63
2019-04-25T06:36:56.513Z,1350.00
2019-04-25T06:37:56.489Z,1355.63
2019-04-25T06:38:56.489Z,1265.63
2019-04-25T06:39:56.493Z,1113.75
2019-04-25T06:40:56.499Z,1299.38
2019-04-25T06:41:56.506Z,1305.00
2019-04-25T06:42:56.534Z,1136.25
2019-04-25T06:43:56.503Z,1243.13
2019-04-25T06:44:56.508Z,1383.75
2019-04-25T06:45:56.513Z,1344.38
2019-04-25T06:46:56.511Z,1361.25
2019-04-25T06:47:56.592Z,1400.63
2019-04-25T06:48:56.519Z,1434.38
2019-04-25T06:49:56.523Z,1299.38
2019-04-25T06:50:56.524Z,1378.13
2019-04-25T06:51:56.527Z,1215.00
2019-04-25T06:52:56.566Z,1338.75
2019-04-25T06:53:56.534Z,1434.38
2019-04-25T06:54:56.539Z,1485.00
2019-04-25T06:55:56.547Z,1670.63
2019-04-25T06:56:56.541Z,1850.63
2019-04-25T06:58:08.923Z,1749.38
2019-04-25T06:58:56.548Z,1693.13
2019-04-25T06:59:56.551Z,1473.75
2019-04-25T07:01:00.563Z,1625.63
2019-04-25T07:01:56.560Z,1726.88
2019-04-25T07:02:56.591Z,1591.88
2019-04-25T07:03:56.566Z,1552.50
2019-04-25T07:04:56.573Z,1569.38
2019-04-25T07:05:56.577Z,1726.88
2019-04-25T07:06:56.576Z,1462.50
2019-04-25T07:07:56.642Z,1372.50
2019-04-25T07:08:56.584Z,1203.75
2019-04-25T07:09:56.624Z,1265.63
2019-04-25T07:10:56.601Z,1732.50
2019-04-25T07:11:56.599Z,1878.75
2019-04-25T07:12:56.631Z,1721.25
2019-04-25T07:13:56.604Z,1456.88
2019-04-25T07:14:56.611Z,1496.25
2019-04-25T07:15:56.612Z,1580.63
2019-04-25T07:16:56.617Z,1816.88
2019-04-25T07:17:56.646Z,1749.38
2019-04-25T07:18:56.626Z,1513.13
2019-04-25T07:19:56.626Z,1445.63
2019-04-25T07:20:56.633Z,1743.75
2019-04-25T07:21:56.636Z,1760.63
2019-04-25T07:22:56.667Z,1974.38
2019-04-25T07:23:56.644Z,2278.13
2019-04-25T07:24:56.648Z,2283.75
2019-04-25T07:25:56.660Z,2317.50
2019-04-25T07:26:56.657Z,2446.88
2019-04-25T07:27:56.689Z,2874.38
2019-04-25T07:28:56.684Z,3273.75
2019-04-25T07:29:56.676Z,3549.38
2019-04-25T07:30:56.676Z,3650.63
2019-04-25T07:31:56.684Z,3206.25
2019-04-25T07:32:56.714Z,3403.13
2019-04-25T07:33:56.693Z,3555.00
2019-04-25T07:34:56.751Z,3684.38
2019-04-25T07:35:57.150Z,3740.63
2019-04-25T07:36:56.711Z,3695.63
2019-04-25T07:37:56.741Z,3380.63
2019-04-25T07:39:05.847Z,3048.75
2019-04-25T07:39:56.730Z,3071.25
2019-04-25T07:40:56.737Z,3690.00
2019-04-25T07:41:56.741Z,3757.50
2019-04-25T07:42:56.749Z,3684.38
2019-04-25T07:43:56.780Z,3847.50
2019-04-25T07:44:56.793Z,3735.00
2019-04-25T07:45:56.767Z,3543.75
2019-04-25T07:46:56.774Z,3740.63
2019-04-25T07:47:56.835Z,3588.75
2019-04-25T07:48:56.812Z,3493.13
2019-04-25T07:49:56.797Z,3639.38
2019-04-25T07:50:56.803Z,3605.63
2019-04-25T07:51:56.809Z,3566.25
2019-04-25T07:52:56.817Z,3526.88
2019-04-25T07:53:56.857Z,3498.75
2019-04-25T07:54:56.830Z,3650.63
2019-04-25T07:55:56.837Z,3639.38
2019-04-25T07:56:56.847Z,3988.13
2019-04-25T07:57:56.856Z,3825.00
2019-04-25T07:58:56.888Z,3386.25
2019-04-25T07:59:56.869Z,3841.88
2019-04-25T08:00:56.878Z,3633.75
2019-04-25T08:01:56.886Z,3358.13
2019-04-25T08:02:56.897Z,3363.75
2019-04-25T08:03:56.928Z,3571.88
2019-04-25T08:04:56.908Z,3425.63
2019-04-25T08:05:56.924Z,3498.75
2019-04-25T08:06:56.931Z,3380.63
2019-04-25T08:07:56.938Z,3335.63
2019-04-25T08:08:56.984Z,3420.00
2019-04-25T08:09:56.954Z,3583.13
2019-04-25T08:10:56.965Z,3718.13
2019-04-25T08:11:56.974Z,3521.25
2019-04-25T08:12:56.980Z,3600.00
2019-04-25T08:13:57.014Z,3971.25
2019-04-25T08:14:57.105Z,4038.75
2019-04-25T08:15:57.007Z,3633.75
2019-04-25T08:16:57.019Z,3442.50
2019-04-25T08:17:57.027Z,3673.13
2019-04-25T08:18:57.081Z,3296.25
2019-04-25T08:19:57.048Z,3549.38
2019-04-25T08:20:57.058Z,3740.63
2019-04-25T08:21:57.066Z,3650.63
2019-04-25T08:22:59.042Z,3695.63
2019-04-25T08:23:57.111Z,3903.75
2019-04-25T08:24:57.125Z,3740.63
2019-04-25T08:25:57.104Z,3571.88
2019-04-25T08:26:57.112Z,3645.00
2019-04-25T08:27:57.123Z,3875.63
2019-04-25T08:28:57.837Z,4078.13
2019-04-25T08:29:57.169Z,4083.75
2019-04-25T08:30:57.153Z,3757.50
2019-04-25T08:31:57.161Z,3892.50
2019-04-25T08:32:57.173Z,3841.88
2019-04-25T08:33:57.184Z,3723.75
2019-04-25T08:34:57.218Z,3656.25
2019-04-25T08:36:08.244Z,3622.50
2019-04-25T08:36:57.219Z,3605.63
2019-04-25T08:37:57.224Z,3841.88
2019-04-25T08:38:57.237Z,3847.50
2019-04-25T08:39:57.271Z,3656.25
2019-04-25T08:40:57.257Z,3577.50
2019-04-25T08:41:57.266Z,3706.88
2019-04-25T08:42:57.277Z,3684.38
2019-04-25T08:43:57.285Z,3830.63
2019-04-25T08:44:58.108Z,4033.13
2019-04-25T08:45:57.310Z,3982.50
2019-04-25T08:46:57.319Z,4207.50
2019-04-25T08:47:57.331Z,4055.63
2019-04-25T08:48:57.368Z,3735.00
2019-04-25T08:49:57.608Z,3690.00
2019-04-25T08:50:57.361Z,3965.63
2019-04-25T08:51:57.776Z,3976.88
2019-04-25T08:52:57.402Z,3892.50
2019-04-25T08:53:57.396Z,4072.50
2019-04-25T08:54:58.081Z,3892.50
2019-04-25T08:55:57.456Z,4128.75
2019-04-25T08:56:57.435Z,3960.00
2019-04-25T08:57:57.442Z,4190.63
2019-04-25T08:59:05.533Z,3982.50
2019-04-25T08:59:57.490Z,3757.50
2019-04-25T09:01:00.913Z,4044.38
2019-04-25T09:01:57.485Z,3425.63
2019-04-25T09:02:57.509Z,2970.00
2019-04-25T09:03:57.506Z,3448.13
2019-04-25T09:04:57.546Z,4140.00
2019-04-25T09:05:57.579Z,3937.50
2019-04-25T09:06:57.547Z,3892.50
2019-04-25T09:07:57.550Z,3881.25
2019-04-25T09:08:57.560Z,3684.38
2019-04-25T09:09:57.603Z,3515.63
2019-04-25T09:10:57.584Z,3476.25
2019-04-25T09:11:57.597Z,3650.63
2019-04-25T09:12:57.605Z,3886.88
2019-04-25T09:13:57.617Z,3954.38
2019-04-25T09:14:57.657Z,3886.88
2019-04-25T09:15:57.642Z,3650.63
2019-04-25T09:16:57.650Z,3937.50
2019-04-25T09:17:57.664Z,4095.00
2019-04-25T09:18:57.672Z,3735.00
2019-04-25T09:19:57.717Z,3774.38
2019-04-25T09:20:57.700Z,3909.38
2019-04-25T09:21:57.717Z,3858.75
2019-04-25T09:22:57.734Z,3825.00
2019-04-25T09:23:57.739Z,3982.50
2019-04-25T09:24:57.773Z,3960.00
2019-04-25T09:25:57.771Z,3886.88
2019-04-25T09:26:57.775Z,3937.50
2019-04-25T09:27:57.783Z,4117.50
2019-04-25T09:28:57.795Z,4117.50
2019-04-25T09:29:57.889Z,3931.88
2019-04-25T09:30:57.816Z,3988.13
2019-04-25T09:31:57.831Z,4190.63
2019-04-25T09:32:57.851Z,4140.00
2019-04-25T09:33:57.856Z,3988.13
2019-04-25T09:34:57.873Z,3898.13
2019-04-25T09:35:57.913Z,3976.88
2019-04-25T09:36:57.914Z,4128.75
2019-04-25T09:37:57.905Z,4190.63
2019-04-25T09:38:57.918Z,4190.63
2019-04-25T09:39:57.936Z,4078.13
2019-04-25T09:40:57.975Z,3960.00
2019-04-25T09:41:57.956Z,3825.00
2019-04-25T09:42:57.966Z,4190.63
2019-04-25T09:43:57.986Z,4269.38
2019-04-25T09:44:57.994Z,3858.75
2019-04-25T09:45:58.032Z,3600.00
2019-04-25T09:46:58.026Z,3611.25
2019-04-25T09:47:58.042Z,3903.75
2019-04-25T09:48:58.045Z,4111.88
2019-04-25T09:49:58.074Z,4314.38
2019-04-25T09:50:58.101Z,4449.38
2019-04-25T09:51:58.104Z,4156.88
2019-04-25T09:52:58.101Z,3999.38
2019-04-25T09:53:58.114Z,3763.13
2019-04-25T09:54:58.124Z,3757.50
2019-04-25T09:55:58.162Z,3903.75
2019-04-25T09:56:58.154Z,3684.38
2019-04-25T09:57:58.160Z,3341.25
2019-04-25T09:58:58.173Z,3082.50
2019-04-25T09:59:58.202Z,2908.13
2019-04-25T10:00:58.226Z,3015.00
2019-04-25T10:01:58.213Z,3335.63
2019-04-25T10:02:58.244Z,3735.00
2019-04-25T10:03:58.244Z,3988.13
2019-04-25T10:04:58.254Z,4072.50
2019-04-25T10:05:58.377Z,4083.75
2019-04-25T10:06:58.306Z,4016.25
2019-04-25T10:07:58.295Z,3796.88
2019-04-25T10:08:58.322Z,3650.63
2019-04-25T10:09:58.411Z,3735.00
2019-04-25T10:10:58.361Z,3763.13
2019-04-25T10:11:58.376Z,3909.38
2019-04-25T10:12:58.365Z,3841.88
2019-04-25T10:13:58.383Z,3723.75
2019-04-25T10:14:58.393Z,3920.63
2019-04-25T10:15:58.409Z,4145.63
2019-04-25T10:16:58.451Z,4005.00
2019-04-25T10:17:58.439Z,3954.38
2019-04-25T10:18:58.452Z,4156.88
2019-04-25T10:19:58.466Z,4258.13
2019-04-25T10:20:58.481Z,4269.38
2019-04-25T10:21:58.539Z,3886.88
2019-04-25T10:22:58.515Z,3886.88
2019-04-25T10:23:58.528Z,4218.75
2019-04-25T10:25:00.667Z,4078.13
2019-04-25T10:25:58.557Z,3960.00
2019-04-25T10:26:58.598Z,4016.25
2019-04-25T10:27:58.592Z,3937.50
2019-04-25T10:28:58.617Z,3825.00
2019-04-25T10:29:58.618Z,3886.88
2019-04-25T10:30:58.630Z,4128.75
2019-04-25T10:31:58.671Z,4010.63
2019-04-25T10:32:58.661Z,3802.50
2019-04-25T10:33:58.677Z,4066.88
2019-04-25T10:34:58.692Z,4089.38
2019-04-25T10:36:01.135Z,4050.00
2019-04-25T10:36:58.755Z,4432.50
2019-04-25T10:37:58.739Z,4438.13
2019-04-25T10:39:07.646Z,4387.50
2019-04-25T10:39:58.773Z,4348.13
2019-04-25T10:40:58.785Z,4235.63
2019-04-25T10:41:58.829Z,4331.25
2019-04-25T10:42:58.824Z,4410.00
2019-04-25T10:43:58.862Z,3988.13
2019-04-25T10:44:58.853Z,3701.25
2019-04-25T10:45:59.552Z,3729.38
2019-04-25T10:46:58.907Z,4021.88
2019-04-25T10:47:58.904Z,4291.88
2019-04-25T10:48:59.654Z,4218.75
2019-04-25T10:49:59.195Z,4044.38
2019-04-25T10:50:58.944Z,4050.00
2019-04-25T10:51:58.986Z,4314.38
2019-04-25T10:52:58.975Z,4320.00
2019-04-25T10:53:58.993Z,4190.63
2019-04-25T10:54:59.005Z,4365.00
2019-04-25T10:55:59.020Z,4426.88
2019-04-25T10:56:59.111Z,4500.00
2019-04-25T10:57:59.069Z,4381.88
2019-04-25T10:58:59.074Z,4320.00
2019-04-25T11:00:06.241Z,4213.13
2019-04-25T11:00:59.101Z,4218.75
2019-04-25T11:01:59.145Z,4438.13
2019-04-25T11:02:59.139Z,4381.88
2019-04-25T11:03:59.169Z,4246.88
2019-04-25T11:04:59.185Z,4269.38
2019-04-25T11:05:59.195Z,4185.00
2019-04-25T11:06:59.220Z,4156.88
2019-04-25T11:07:59.213Z,4151.25
2019-04-25T11:08:59.241Z,4286.25
2019-04-25T11:09:59.247Z,4331.25
2019-04-25T11:10:59.258Z,4185.00
2019-04-25T11:11:59.300Z,4106.25
2019-04-25T11:12:59.292Z,4010.63
2019-04-25T11:13:59.309Z,4010.63
2019-04-25T11:14:59.322Z,4123.13
2019-04-25T11:15:59.335Z,4100.63
2019-04-25T11:16:59.400Z,4100.63
2019-04-25T11:17:59.422Z,4291.88
2019-04-25T11:18:59.415Z,4348.13
2019-04-25T11:19:59.403Z,4100.63
2019-04-25T11:20:59.423Z,3948.75
2019-04-25T11:21:59.464Z,4100.63
2019-04-25T11:22:59.448Z,4173.75
2019-04-25T11:23:59.468Z,4151.25
2019-04-25T11:24:59.486Z,4297.50
2019-04-25T11:25:59.543Z,4522.50
2019-04-25T11:26:59.546Z,4308.75
2019-04-25T11:27:59.538Z,4106.25
2019-04-25T11:28:59.581Z,4246.88
2019-04-25T11:30:09.312Z,4297.50
2019-04-25T11:30:59.585Z,4089.38
2019-04-25T11:31:59.631Z,4168.13
2019-04-25T11:32:59.617Z,4460.63
2019-04-25T11:33:59.636Z,4556.25
2019-04-25T11:34:59.710Z,4246.88
2019-04-25T11:35:59.667Z,4123.13
2019-04-25T11:36:59.764Z,4145.63
2019-04-25T11:37:59.775Z,4106.25
2019-04-25T11:38:59.717Z,4252.50
2019-04-25T11:39:59.738Z,4314.38
2019-04-25T11:40:59.751Z,4117.50
2019-04-25T11:41:59.769Z,3802.50
2019-04-25T11:42:59.845Z,3577.50
2019-04-25T11:44:00.487Z,3335.63
2019-04-25T11:45:00.552Z,3420.00
2019-04-25T11:45:59.835Z,3791.25
2019-04-25T11:46:59.849Z,3993.75
2019-04-25T11:47:59.893Z,4224.38
2019-04-25T11:48:59.916Z,4438.13
2019-04-25T11:49:59.949Z,4320.00
2019-04-25T11:50:59.929Z,4320.00
2019-04-25T11:51:59.934Z,4398.75
2019-04-25T11:53:00.922Z,4269.38
2019-04-25T11:53:59.967Z,4151.25
2019-04-25T11:54:59.983Z,4072.50
2019-04-25T11:56:00.001Z,4033.13
2019-04-25T11:57:00.016Z,3819.38
2019-04-25T11:58:00.062Z,3802.50
2019-04-25T11:59:00.058Z,3870.00
2019-04-25T12:00:00.080Z,3915.00
2019-04-25T12:01:00.093Z,3988.13
2019-04-25T12:02:00.103Z,4140.00
2019-04-25T12:03:00.141Z,4190.63
2019-04-25T12:04:00.139Z,3853.13
2019-04-25T12:05:00.221Z,3661.88
2019-04-25T12:06:00.173Z,3470.63
2019-04-25T12:07:00.199Z,3639.38
2019-04-25T12:08:00.231Z,3920.63
2019-04-25T12:09:00.270Z,4061.25
2019-04-25T12:10:00.248Z,3673.13
2019-04-25T12:11:00.381Z,3498.75
2019-04-25T12:12:01.121Z,3583.13
2019-04-25T12:13:01.134Z,3768.75
2019-04-25T12:14:00.307Z,3836.25
2019-04-25T12:15:00.319Z,4061.25
2019-04-25T12:16:00.381Z,3976.88
2019-04-25T12:17:00.362Z,3960.00
2019-04-25T12:18:00.401Z,3796.88
2019-04-25T12:19:00.403Z,3701.25
2019-04-25T12:20:00.407Z,3678.75
2019-04-25T12:21:00.422Z,3678.75
2019-04-25T12:22:00.442Z,3583.13
2019-04-25T12:23:08.412Z,3645.00
2019-04-25T12:24:01.866Z,3915.00
2019-04-25T12:25:00.497Z,3667.50
2019-04-25T12:26:00.507Z,3605.63
2019-04-25T12:27:00.526Z,3830.63
2019-04-25T12:28:00.585Z,3847.50
2019-04-25T12:29:04.206Z,4111.88
2019-04-25T12:30:01.137Z,4089.38
2019-04-25T12:31:00.641Z,3903.75
2019-04-25T12:32:00.655Z,3588.75
2019-04-25T12:33:00.653Z,3431.25